createdAt,value
2023-05-10T00:01:39.305Z,12.33
2023-05-10T00:04:07.909Z,12.26
2023-05-10T00:06:36.377Z,12.14
2023-05-10T00:09:04.880Z,11.78
2023-05-10T00:11:34.760Z,11.92
2023-05-10T00:14:03.220Z,11.69
2023-05-10T00:16:31.799Z,11.63
2023-05-10T00:19:00.255Z,11.76
2023-05-10T00:21:29.541Z,11.82
2023-05-10T00:23:57.988Z,11.94
2023-05-10T00:26:26.359Z,11.95
2023-05-10T00:28:59.672Z,12.10
2023-05-10T00:31:28.650Z,12.19
2023-05-10T00:33:57.371Z,12.31
2023-05-10T00:36:25.978Z,12.50
2023-05-10T00:38:54.428Z,12.19
2023-05-10T00:41:23.210Z,11.85
2023-05-10T00:43:51.978Z,11.79
2023-05-10T00:46:22.595Z,11.55
2023-05-10T00:48:51.409Z,11.69
2023-05-10T00:51:19.987Z,12.01
2023-05-10T00:53:48.726Z,12.21
2023-05-10T00:56:17.704Z,12.31
2023-05-10T00:58:46.260Z,12.41
2023-05-10T01:01:15.381Z,12.53
2023-05-10T01:03:45.943Z,12.59
2023-05-10T01:06:14.735Z,12.47
2023-05-10T01:08:43.256Z,12.46
2023-05-10T01:11:12.141Z,12.55
2023-05-10T01:13:41.111Z,12.96
2023-05-10T01:16:09.704Z,12.67
2023-05-10T01:18:42.454Z,12.44
2023-05-10T01:21:21.871Z,12.42
2023-05-10T01:24:33.437Z,12.64
2023-05-10T01:27:32.647Z,12.79
2023-05-10T01:30:46.988Z,12.99
2023-05-10T01:33:21.385Z,12.80
2023-05-10T01:35:55.903Z,12.70
2023-05-10T01:38:32.241Z,12.70
2023-05-10T01:41:15.309Z,12.54
2023-05-10T01:43:50.962Z,12.57
2023-05-10T01:46:27.053Z,12.53
2023-05-10T01:49:00.147Z,12.33
2023-05-10T01:51:47.370Z,12.47
2023-05-10T01:54:17.568Z,12.41
2023-05-10T01:56:47.832Z,12.49
2023-05-10T01:59:20.555Z,12.38
2023-05-10T02:01:51.172Z,12.38
2023-05-10T02:04:24.392Z,12.18
2023-05-10T02:06:55.210Z,12.30
2023-05-10T02:09:23.976Z,12.35
2023-05-10T02:11:52.833Z,12.47
2023-05-10T02:14:22.361Z,12.50
2023-05-10T02:16:53.149Z,12.34
2023-05-10T02:19:25.844Z,12.44
2023-05-10T02:22:15.213Z,12.46
2023-05-10T02:24:44.398Z,12.54
2023-05-10T02:27:14.657Z,12.26
2023-05-10T02:29:44.807Z,12.39
2023-05-10T02:32:14.822Z,12.31
2023-05-10T02:34:46.848Z,12.53
2023-05-10T02:37:19.520Z,12.55
2023-05-10T02:39:49.345Z,12.35
2023-05-10T02:42:20.467Z,12.62
2023-05-10T02:44:51.054Z,12.56
2023-05-10T02:47:20.720Z,12.69
2023-05-10T02:49:51.864Z,12.65
2023-05-10T02:52:25.698Z,12.52
2023-05-10T02:54:58.000Z,12.51
2023-05-10T02:57:30.879Z,12.58
2023-05-10T02:59:59.610Z,12.68
2023-05-10T03:02:28.091Z,12.78
2023-05-10T03:04:58.235Z,12.90
2023-05-10T03:07:27.283Z,12.92
2023-05-10T03:09:58.576Z,12.53
2023-05-10T03:12:43.141Z,12.71
2023-05-10T03:15:23.773Z,12.59
2023-05-10T03:17:58.590Z,12.81
2023-05-10T03:20:37.791Z,13.02
2023-05-10T03:23:14.896Z,12.87
2023-05-10T03:25:45.769Z,12.89
2023-05-10T03:28:16.668Z,13.05
2023-05-10T03:30:47.234Z,13.20
2023-05-10T03:33:15.999Z,13.27
2023-05-10T03:35:48.910Z,12.87
2023-05-10T03:38:18.170Z,13.11
2023-05-10T03:40:46.738Z,13.43
2023-05-10T03:43:15.274Z,12.99
2023-05-10T03:45:44.341Z,12.94
2023-05-10T03:48:14.745Z,13.26
2023-05-10T03:50:44.025Z,13.22
2023-05-10T03:53:14.325Z,13.44
2023-05-10T03:55:42.827Z,12.44
2023-05-10T03:58:13.514Z,12.64
2023-05-10T04:00:44.895Z,12.77
2023-05-10T04:03:14.776Z,13.16
2023-05-10T04:05:43.314Z,12.84
2023-05-10T04:08:13.243Z,13.51
2023-05-10T04:10:41.852Z,12.91
2023-05-10T04:13:10.248Z,12.87
2023-05-10T04:15:38.709Z,11.31
2023-05-10T04:18:08.835Z,12.51
2023-05-10T04:20:37.493Z,13.07
2023-05-10T04:23:05.903Z,13.14
2023-05-10T04:25:37.790Z,13.30
2023-05-10T04:28:06.555Z,14.27
2023-05-10T04:30:35.012Z,14.54
2023-05-10T04:33:03.682Z,14.76
2023-05-10T04:35:32.112Z,14.76
2023-05-10T04:38:00.544Z,15.34
2023-05-10T04:40:29.080Z,15.33
2023-05-10T04:42:58.993Z,14.87
2023-05-10T04:45:27.437Z,14.67
2023-05-10T04:47:55.853Z,14.65
2023-05-10T04:50:24.390Z,14.60
2023-05-10T04:52:53.426Z,14.71
2023-05-10T04:55:22.190Z,14.74
2023-05-10T04:57:50.687Z,14.66
2023-05-10T05:00:21.691Z,14.96
2023-05-10T05:02:50.956Z,14.88
2023-05-10T05:05:19.478Z,15.12
2023-05-10T05:07:48.005Z,15.83
2023-05-10T05:10:16.648Z,15.97
2023-05-10T05:12:48.810Z,15.72
2023-05-10T05:15:17.870Z,16.03
2023-05-10T05:17:47.870Z,16.48
2023-05-10T05:20:16.866Z,16.38
2023-05-10T05:22:45.584Z,16.25
2023-05-10T05:25:14.099Z,15.85
2023-05-10T05:27:42.539Z,16.41
2023-05-10T05:30:12.295Z,16.99
2023-05-10T05:32:40.953Z,16.80
2023-05-10T05:35:11.292Z,16.57
2023-05-10T05:37:39.819Z,17.65
2023-05-10T05:40:09.334Z,17.12
2023-05-10T05:42:37.783Z,17.24
2023-05-10T05:45:06.798Z,17.18
2023-05-10T05:47:35.642Z,17.59
2023-05-10T05:50:03.793Z,17.55
2023-05-10T05:52:33.641Z,16.84
2023-05-10T05:55:02.143Z,16.70
2023-05-10T05:57:32.594Z,17.13
2023-05-10T06:00:01.198Z,17.41
2023-05-10T06:02:29.816Z,17.74
2023-05-10T06:04:58.541Z,17.17
2023-05-10T06:07:27.025Z,17.38
2023-05-10T06:09:56.865Z,17.83
2023-05-10T06:12:25.303Z,17.00
2023-05-10T06:14:53.801Z,17.18
2023-05-10T06:17:22.817Z,17.16
2023-05-10T06:19:51.114Z,18.34
2023-05-10T06:22:19.742Z,18.88
2023-05-10T06:24:48.124Z,18.51
2023-05-10T06:27:18.381Z,17.45
2023-05-10T06:29:47.035Z,18.51
2023-05-10T06:32:15.437Z,18.84
2023-05-10T06:34:44.548Z,18.83
2023-05-10T06:37:12.983Z,17.86
2023-05-10T06:39:41.516Z,18.89
2023-05-10T06:42:09.952Z,18.10
2023-05-10T06:44:39.813Z,18.39
2023-05-10T06:47:08.274Z,18.50
2023-05-10T06:49:36.750Z,18.83
2023-05-10T06:52:05.239Z,19.92
2023-05-10T06:54:33.678Z,19.17
2023-05-10T06:57:05.850Z,19.08
2023-05-10T06:59:37.488Z,17.88
2023-05-10T07:02:07.852Z,18.52
2023-05-10T07:04:36.450Z,19.44
2023-05-10T07:07:04.928Z,20.15
2023-05-10T07:09:33.385Z,19.10
2023-05-10T07:12:02.861Z,20.14
2023-05-10T07:14:31.345Z,19.25
2023-05-10T07:16:59.753Z,19.75
2023-05-10T07:19:30.511Z,20.43
2023-05-10T07:21:58.998Z,20.69
2023-05-10T07:24:27.637Z,19.83
2023-05-10T07:26:56.098Z,19.58
2023-05-10T07:29:24.477Z,19.55
2023-05-10T07:31:52.990Z,19.28
2023-05-10T07:34:21.507Z,19.01
2023-05-10T07:36:51.353Z,19.36
2023-05-10T07:39:26.523Z,18.64
2023-05-10T07:41:56.730Z,18.13
2023-05-10T07:44:24.916Z,19.40
2023-05-10T07:46:53.375Z,19.21
2023-05-10T07:49:22.018Z,17.63
2023-05-10T07:51:52.026Z,18.01
2023-05-10T07:54:20.470Z,18.40
2023-05-10T07:56:49.345Z,19.82
2023-05-10T07:59:18.686Z,19.53
2023-05-10T08:01:47.479Z,18.05
2023-05-10T08:04:15.857Z,18.83
2023-05-10T08:06:44.633Z,18.42
2023-05-10T08:09:14.502Z,18.21
2023-05-10T08:11:42.982Z,18.70
2023-05-10T08:14:11.357Z,18.56
2023-05-10T08:16:39.834Z,18.80
2023-05-10T08:19:08.397Z,17.93
2023-05-10T08:21:36.903Z,17.94
2023-05-10T08:24:05.992Z,18.03
2023-05-10T08:26:36.285Z,17.56
2023-05-10T08:29:05.039Z,17.37
2023-05-10T08:31:33.472Z,17.83
2023-05-10T08:34:02.208Z,19.03
2023-05-10T08:36:31.009Z,19.02
2023-05-10T08:38:59.491Z,18.73
2023-05-10T08:41:28.031Z,18.59
2023-05-10T08:43:58.037Z,18.46
2023-05-10T08:46:26.544Z,18.26
2023-05-10T08:48:57.057Z,18.80
2023-05-10T08:51:27.913Z,19.88
2023-05-10T08:53:57.076Z,20.08
2023-05-10T08:56:26.197Z,20.44
2023-05-10T08:58:54.816Z,21.20
2023-05-10T09:01:25.495Z,21.43
2023-05-10T09:03:54.688Z,21.31
2023-05-10T09:06:23.497Z,20.65
2023-05-10T09:08:52.000Z,20.70
2023-05-10T09:11:22.204Z,19.86
2023-05-10T09:13:53.014Z,19.57
2023-05-10T09:16:22.569Z,19.55
2023-05-10T09:18:52.596Z,19.46
2023-05-10T09:21:22.734Z,18.94
2023-05-10T09:23:55.176Z,20.00
2023-05-10T09:26:26.843Z,19.50
2023-05-10T09:28:57.228Z,18.67
2023-05-10T09:31:26.915Z,18.77
2023-05-10T09:33:56.790Z,18.93
2023-05-10T09:36:25.126Z,18.94
2023-05-10T09:38:54.685Z,20.71
2023-05-10T09:41:25.076Z,20.21
2023-05-10T09:43:58.075Z,21.77
2023-05-10T09:46:27.174Z,22.53
2023-05-10T09:48:57.010Z,21.20
2023-05-10T09:51:27.976Z,20.69
2023-05-10T09:54:12.918Z,21.23
2023-05-10T09:56:41.764Z,21.71
2023-05-10T09:59:10.451Z,23.33
2023-05-10T10:01:39.494Z,22.71
2023-05-10T10:04:11.939Z,21.51
2023-05-10T10:06:41.004Z,21.82
2023-05-10T10:09:10.010Z,20.89
2023-05-10T10:11:40.899Z,20.52
2023-05-10T10:14:09.423Z,19.77
2023-05-10T10:16:45.841Z,18.92
2023-05-10T10:19:22.628Z,19.86
2023-05-10T10:21:52.315Z,19.94
2023-05-10T10:24:20.861Z,20.31
2023-05-10T10:26:50.588Z,20.86
2023-05-10T10:29:26.049Z,22.50
2023-05-10T10:32:03.544Z,22.98
2023-05-10T10:34:34.259Z,22.42
2023-05-10T10:37:07.797Z,20.52
2023-05-10T10:39:37.910Z,20.89
2023-05-10T10:42:07.261Z,20.55
2023-05-10T10:44:41.449Z,20.74
2023-05-10T10:47:28.526Z,19.74
2023-05-10T10:50:07.888Z,20.23
2023-05-10T10:52:37.644Z,20.43
2023-05-10T10:55:09.469Z,20.80
2023-05-10T10:57:48.162Z,20.26
2023-05-10T11:00:29.361Z,21.38
2023-05-10T11:03:02.162Z,22.11
2023-05-10T11:05:50.497Z,20.78
2023-05-10T11:08:23.058Z,20.56
2023-05-10T11:10:54.041Z,21.43
2023-05-10T11:13:31.701Z,21.54
2023-05-10T11:16:00.847Z,20.31
2023-05-10T11:18:31.590Z,20.29
2023-05-10T11:21:04.331Z,21.53
2023-05-10T11:23:34.576Z,20.86
2023-05-10T11:26:03.434Z,20.91
2023-05-10T11:28:31.570Z,20.41
2023-05-10T11:31:00.496Z,20.20
2023-05-10T11:33:28.945Z,20.61
2023-05-10T11:35:57.307Z,20.60
2023-05-10T11:38:27.095Z,21.75
2023-05-10T11:40:55.822Z,21.91
2023-05-10T11:43:26.736Z,22.04
2023-05-10T11:45:55.243Z,21.84
2023-05-10T11:48:25.062Z,21.31
2023-05-10T11:50:53.922Z,20.99
2023-05-10T11:53:23.703Z,21.89
2023-05-10T11:55:54.570Z,21.24
2023-05-10T11:58:24.467Z,21.78
2023-05-10T12:00:53.147Z,20.23
2023-05-10T12:03:21.902Z,20.93
2023-05-10T12:05:50.349Z,21.11
2023-05-10T12:08:24.084Z,22.10
2023-05-10T12:10:54.598Z,22.61
2023-05-10T12:13:23.563Z,22.68
2023-05-10T12:15:52.703Z,23.19
2023-05-10T12:18:25.981Z,21.71
2023-05-10T12:20:55.288Z,21.19
2023-05-10T12:23:23.760Z,20.32
2023-05-10T12:25:55.052Z,20.67
2023-05-10T12:28:24.962Z,20.60
2023-05-10T12:30:56.358Z,21.05
2023-05-10T12:33:24.907Z,20.33
2023-05-10T12:35:54.995Z,19.86
2023-05-10T12:38:31.949Z,19.97
2023-05-10T12:41:01.755Z,21.14
2023-05-10T12:43:32.133Z,21.00
2023-05-10T12:46:00.634Z,20.73
2023-05-10T12:48:29.836Z,20.97
2023-05-10T12:50:58.202Z,20.94
2023-05-10T12:53:26.903Z,21.87
2023-05-10T12:55:55.571Z,22.82
2023-05-10T12:58:34.953Z,21.78
2023-05-10T13:01:07.739Z,21.01
2023-05-10T13:03:36.189Z,20.79
2023-05-10T13:06:04.602Z,20.22
2023-05-10T13:08:34.787Z,20.12
2023-05-10T13:11:04.563Z,19.85
2023-05-10T13:13:35.547Z,19.47
2023-05-10T13:16:05.627Z,20.03
2023-05-10T13:18:34.326Z,20.23
2023-05-10T13:21:04.985Z,20.35
2023-05-10T13:23:33.518Z,20.36
2023-05-10T13:26:01.926Z,21.14
2023-05-10T13:28:31.272Z,21.46
2023-05-10T13:31:01.140Z,21.57
2023-05-10T13:33:31.103Z,20.85
2023-05-10T13:35:59.651Z,20.25
2023-05-10T13:38:28.058Z,19.49
2023-05-10T13:40:56.588Z,18.89
2023-05-10T13:43:26.005Z,19.40
2023-05-10T13:45:54.516Z,19.32
2023-05-10T13:48:23.028Z,19.50
2023-05-10T13:50:52.932Z,19.45
2023-05-10T13:53:21.356Z,20.05
2023-05-10T13:58:36.609Z,20.50
2023-05-10T14:01:06.076Z,20.12
2023-05-10T14:03:34.846Z,20.23
2023-05-10T14:06:04.709Z,20.24
2023-05-10T14:08:33.313Z,20.28
2023-05-10T14:11:01.758Z,19.95
2023-05-10T14:13:30.225Z,19.93
2023-05-10T14:15:59.910Z,20.31
2023-05-10T14:18:28.775Z,19.65
2023-05-10T14:20:57.490Z,19.83
2023-05-10T14:23:27.138Z,19.77
2023-05-10T14:25:55.754Z,20.48
2023-05-10T14:28:24.756Z,19.88
2023-05-10T14:30:53.305Z,19.46
2023-05-10T14:33:21.901Z,19.55
2023-05-10T14:35:50.661Z,19.39
2023-05-10T14:38:19.149Z,19.23
2023-05-10T14:40:48.902Z,18.82
2023-05-10T14:43:17.486Z,19.61
2023-05-10T14:45:46.448Z,19.16
2023-05-10T14:48:17.209Z,19.19
2023-05-10T14:50:45.812Z,19.35
2023-05-10T14:53:14.386Z,18.80
2023-05-10T14:55:43.083Z,18.80
2023-05-10T14:58:13.113Z,18.66
2023-05-10T15:00:41.557Z,18.92
2023-05-10T15:03:10.311Z,19.27
2023-05-10T15:05:39.606Z,19.20
2023-05-10T15:08:08.058Z,19.18
2023-05-10T15:10:36.657Z,19.28
2023-05-10T15:13:06.418Z,19.40
2023-05-10T15:15:36.356Z,19.41
2023-05-10T15:18:05.739Z,19.17
2023-05-10T15:20:34.305Z,19.19
2023-05-10T15:23:05.012Z,18.79
2023-05-10T15:25:35.929Z,18.56
2023-05-10T15:28:04.590Z,18.25
2023-05-10T15:30:33.168Z,18.24
2023-05-10T15:33:03.399Z,18.40
2023-05-10T15:35:31.965Z,18.57
2023-05-10T15:38:00.410Z,18.59
2023-05-10T15:40:28.960Z,18.38
2023-05-10T15:42:57.458Z,18.36
2023-05-10T15:45:25.847Z,18.41
2023-05-10T15:47:54.404Z,18.37
2023-05-10T15:50:27.783Z,18.40
2023-05-10T15:52:56.362Z,18.45
2023-05-10T15:55:26.495Z,18.35
2023-05-10T15:57:55.060Z,18.70
2023-05-10T16:00:23.489Z,18.72
2023-05-10T16:02:54.199Z,18.64
2023-05-10T16:05:24.920Z,18.90
2023-05-10T16:07:59.957Z,18.86
2023-05-10T16:10:29.539Z,18.97
2023-05-10T16:12:58.023Z,19.09
2023-05-10T16:15:29.754Z,19.14
2023-05-10T16:17:58.412Z,19.17
2023-05-10T16:20:30.205Z,19.68
2023-05-10T16:23:04.611Z,19.24
2023-05-10T16:25:33.762Z,19.38
2023-05-10T16:28:02.816Z,19.32
2023-05-10T16:30:31.346Z,19.19
2023-05-10T16:33:02.012Z,19.30
2023-05-10T16:35:30.729Z,19.17
2023-05-10T16:38:04.097Z,18.94
2023-05-10T16:40:32.651Z,18.59
2023-05-10T16:43:01.505Z,18.57
2023-05-10T16:45:32.155Z,19.09
2023-05-10T16:48:02.948Z,18.77
2023-05-10T16:50:31.492Z,18.79
2023-05-10T16:53:03.268Z,18.63
2023-05-10T16:55:32.196Z,18.56
2023-05-10T16:58:01.076Z,18.45
2023-05-10T17:00:29.594Z,18.94
2023-05-10T17:02:58.334Z,18.58
2023-05-10T17:05:28.335Z,18.53
2023-05-10T17:07:59.946Z,18.39
2023-05-10T17:10:30.061Z,18.40
2023-05-10T17:12:58.554Z,18.20
2023-05-10T17:15:28.224Z,18.19
2023-05-10T17:17:57.781Z,18.08
2023-05-10T17:20:26.800Z,18.13
2023-05-10T17:22:58.195Z,18.16
2023-05-10T17:25:30.576Z,18.27
2023-05-10T17:28:03.412Z,18.36
2023-05-10T17:30:32.908Z,18.36
2023-05-10T17:33:03.871Z,18.38
2023-05-10T17:35:35.604Z,18.40
2023-05-10T17:38:04.168Z,18.43
2023-05-10T17:40:44.339Z,18.27
2023-05-10T17:43:43.297Z,18.26
2023-05-10T17:46:13.076Z,18.21
2023-05-10T17:48:45.439Z,18.43
2023-05-10T17:51:16.033Z,18.41
2023-05-10T17:53:47.149Z,18.50
2023-05-10T17:56:17.578Z,18.51
2023-05-10T17:58:51.243Z,18.50
2023-05-10T18:01:21.714Z,18.22
2023-05-10T18:03:53.726Z,18.17
2023-05-10T18:06:28.073Z,18.02
2023-05-10T18:08:57.111Z,17.85
2023-05-10T18:11:28.830Z,18.57
2023-05-10T18:14:00.075Z,18.27
2023-05-10T18:16:29.093Z,17.98
2023-05-10T18:18:57.689Z,18.04
2023-05-10T18:21:26.284Z,18.14
2023-05-10T18:23:54.810Z,18.19
2023-05-10T18:26:26.438Z,18.14
2023-05-10T18:28:55.076Z,18.07
2023-05-10T18:31:29.590Z,18.08
2023-05-10T18:33:59.346Z,18.19
2023-05-10T18:36:29.708Z,18.20
2023-05-10T18:38:59.647Z,18.16
2023-05-10T18:41:29.450Z,18.17
2023-05-10T18:44:03.288Z,18.16
2023-05-10T18:46:33.869Z,18.17
2023-05-10T18:49:02.767Z,18.20
2023-05-10T18:51:31.712Z,18.80
2023-05-10T18:54:01.564Z,18.35
2023-05-10T18:56:34.854Z,18.20
2023-05-10T18:59:03.573Z,18.15
2023-05-10T19:01:40.335Z,18.16
2023-05-10T19:04:11.360Z,18.06
2023-05-10T19:06:41.696Z,18.06
2023-05-10T19:09:10.191Z,17.90
2023-05-10T19:11:38.580Z,17.86
2023-05-10T19:14:07.109Z,17.73
2023-05-10T19:16:37.051Z,17.69
2023-05-10T19:19:10.344Z,17.49
2023-05-10T19:21:39.016Z,17.45
2023-05-10T19:24:08.039Z,17.59
2023-05-10T19:26:37.385Z,17.48
2023-05-10T19:29:06.105Z,17.39
2023-05-10T19:31:34.784Z,17.77
2023-05-10T19:34:05.444Z,17.83
2023-05-10T19:36:38.177Z,17.59
2023-05-10T19:39:06.715Z,17.46
2023-05-10T19:41:35.333Z,17.48
2023-05-10T19:44:09.748Z,17.34
2023-05-10T19:46:40.959Z,17.23
2023-05-10T19:49:18.367Z,17.02
2023-05-10T19:51:48.850Z,16.74
2023-05-10T19:54:18.400Z,16.69
2023-05-10T19:56:46.815Z,16.57
2023-05-10T19:59:15.549Z,16.55
2023-05-10T20:01:46.998Z,16.14
2023-05-10T20:04:16.589Z,15.87
2023-05-10T20:06:45.527Z,15.81
2023-05-10T20:09:22.819Z,16.14
2023-05-10T20:11:53.931Z,16.27
2023-05-10T20:14:26.045Z,16.08
2023-05-10T20:16:56.726Z,16.05
2023-05-10T20:19:26.416Z,15.91
2023-05-10T20:21:58.799Z,16.14
2023-05-10T20:24:29.681Z,16.18
2023-05-10T20:26:58.971Z,15.87
2023-05-10T20:29:30.390Z,15.88
2023-05-10T20:31:59.958Z,15.85
2023-05-10T20:34:35.412Z,15.87
2023-05-10T20:37:04.154Z,15.59
2023-05-10T20:39:37.000Z,15.68
2023-05-10T20:42:06.313Z,15.97
2023-05-10T20:44:35.077Z,16.17
2023-05-10T20:47:06.827Z,16.09
2023-05-10T20:49:36.839Z,15.98
2023-05-10T20:52:10.555Z,15.91
2023-05-10T20:54:41.159Z,15.70
2023-05-10T20:57:14.216Z,15.86
2023-05-10T20:59:43.288Z,15.93
2023-05-10T21:02:18.588Z,16.04
2023-05-10T21:04:57.817Z,16.06
2023-05-10T21:07:27.490Z,16.05
2023-05-10T21:10:00.147Z,16.04
2023-05-10T21:12:29.328Z,15.85
2023-05-10T21:14:57.638Z,16.49
2023-05-10T21:17:29.409Z,16.24
2023-05-10T21:19:58.305Z,16.21
2023-05-10T21:22:27.715Z,16.26
2023-05-10T21:24:57.883Z,15.93
2023-05-10T21:27:27.042Z,16.02
2023-05-10T21:29:57.861Z,15.54
2023-05-10T21:32:27.413Z,15.53
2023-05-10T21:34:56.064Z,15.49
2023-05-10T21:37:27.810Z,15.60
2023-05-10T21:39:58.041Z,15.66
2023-05-10T21:42:29.220Z,15.76
2023-05-10T21:45:00.562Z,15.91
2023-05-10T21:47:29.108Z,15.75
2023-05-10T21:50:00.167Z,15.81
2023-05-10T21:52:28.824Z,15.68
2023-05-10T21:54:58.954Z,15.92
2023-05-10T21:57:29.344Z,15.95
2023-05-10T21:59:57.887Z,15.78
2023-05-10T22:02:26.847Z,15.76
2023-05-10T22:04:55.244Z,15.82
2023-05-10T22:07:24.267Z,15.96
2023-05-10T22:09:52.632Z,15.76
2023-05-10T22:12:22.524Z,15.98
2023-05-10T22:15:06.493Z,15.99
2023-05-10T22:17:39.726Z,16.14
2023-05-10T22:20:09.804Z,16.25
2023-05-10T22:22:38.541Z,16.36
2023-05-10T22:25:10.993Z,16.32
2023-05-10T22:27:40.897Z,16.43
2023-05-10T22:30:13.400Z,16.48
2023-05-10T22:32:41.969Z,16.52
2023-05-10T22:35:13.082Z,16.47
2023-05-10T22:37:41.773Z,16.46
2023-05-10T22:40:11.717Z,16.54
2023-05-10T22:42:41.501Z,16.48
2023-05-10T22:45:11.264Z,16.37
2023-05-10T22:47:39.857Z,16.45
2023-05-10T22:50:10.246Z,16.52
2023-05-10T22:52:39.524Z,16.54
2023-05-10T22:55:08.559Z,16.51
2023-05-10T22:57:37.490Z,16.56
2023-05-10T23:00:09.377Z,16.37
2023-05-10T23:02:37.937Z,16.36
2023-05-10T23:05:07.674Z,16.35
2023-05-10T23:07:36.213Z,16.19
2023-05-10T23:10:04.766Z,15.65
2023-05-10T23:12:34.188Z,15.08
2023-05-10T23:15:02.738Z,15.19
2023-05-10T23:17:33.688Z,15.07
2023-05-10T23:20:02.382Z,15.21
2023-05-10T23:22:31.748Z,15.20
2023-05-10T23:25:00.214Z,15.38
2023-05-10T23:27:30.649Z,14.99
2023-05-10T23:29:59.166Z,15.18
2023-05-10T23:32:27.596Z,15.09
2023-05-10T23:34:57.489Z,14.61
2023-05-10T23:37:25.990Z,14.33
2023-05-10T23:39:54.352Z,14.27
2023-05-10T23:42:22.857Z,14.00
2023-05-10T23:44:52.833Z,13.69
2023-05-10T23:47:21.321Z,13.77
2023-05-10T23:49:51.369Z,13.80
2023-05-10T23:52:24.908Z,13.71
2023-05-10T23:54:53.730Z,13.71
2023-05-10T23:57:22.160Z,13.70
2023-05-10T23:59:50.535Z,13.59
